sensor_id;sensor_type;location;lat;lon;timestamp;P1;durP1;ratioP1;P2;durP2;ratioP2
6135;SDS011;24008;42.664;23.372;2022-12-20T00:01:50;18.30;;;9.43;;
6135;SDS011;24008;42.664;23.372;2022-12-20T00:04:17;12.93;;;6.70;;
6135;SDS011;24008;42.664;23.372;2022-12-20T00:06:44;15.17;;;8.60;;
6135;SDS011;24008;42.664;23.372;2022-12-20T00:09:12;18.20;;;9.73;;
6135;SDS011;24008;42.664;23.372;2022-12-20T00:11:39;16.80;;;8.80;;
6135;SDS011;24008;42.664;23.372;2022-12-20T00:14:06;19.00;;;10.87;;
6135;SDS011;24008;42.664;23.372;2022-12-20T00:16:34;20.93;;;10.77;;
6135;SDS011;24008;42.664;23.372;2022-12-20T00:19:03;22.00;;;10.97;;
6135;SDS011;24008;42.664;23.372;2022-12-20T00:21:31;17.57;;;9.80;;
6135;SDS011;24008;42.664;23.372;2022-12-20T00:23:59;14.10;;;8.73;;
6135;SDS011;24008;42.664;23.372;2022-12-20T00:26:29;20.13;;;8.97;;
6135;SDS011;24008;42.664;23.372;2022-12-20T00:28:57;14.33;;;8.67;;
6135;SDS011;24008;42.664;23.372;2022-12-20T00:31:25;15.47;;;8.77;;
6135;SDS011;24008;42.664;23.372;2022-12-20T00:33:54;14.10;;;8.63;;
6135;SDS011;24008;42.664;23.372;2022-12-20T00:36:22;21.10;;;9.63;;
6135;SDS011;24008;42.664;23.372;2022-12-20T00:38:50;17.77;;;10.07;;
6135;SDS011;24008;42.664;23.372;2022-12-20T00:41:20;23.70;;;11.07;;
6135;SDS011;24008;42.664;23.372;2022-12-20T00:43:49;18.00;;;9.53;;
6135;SDS011;24008;42.664;23.372;2022-12-20T00:46:17;18.87;;;9.40;;
6135;SDS011;24008;42.664;23.372;2022-12-20T00:48:44;17.60;;;8.80;;
6135;SDS011;24008;42.664;23.372;2022-12-20T00:51:12;16.07;;;8.50;;
6135;SDS011;24008;42.664;23.372;2022-12-20T00:53:40;13.67;;;7.47;;
6135;SDS011;24008;42.664;23.372;2022-12-20T00:56:08;15.10;;;8.20;;
6135;SDS011;24008;42.664;23.372;2022-12-20T00:58:36;13.20;;;6.67;;
6135;SDS011;24008;42.664;23.372;2022-12-20T01:01:06;16.07;;;8.97;;
6135;SDS011;24008;42.664;23.372;2022-12-20T01:03:42;11.90;;;6.80;;
6135;SDS011;24008;42.664;23.372;2022-12-20T01:06:09;15.40;;;8.23;;
6135;SDS011;24008;42.664;23.372;2022-12-20T01:08:36;17.57;;;8.77;;
6135;SDS011;24008;42.664;23.372;2022-12-20T01:11:04;19.27;;;9.97;;
6135;SDS011;24008;42.664;23.372;2022-12-20T01:13:34;17.50;;;8.23;;
6135;SDS011;24008;42.664;23.372;2022-12-20T01:16:03;12.10;;;7.07;;
6135;SDS011;24008;42.664;23.372;2022-12-20T01:18:32;16.90;;;7.60;;
6135;SDS011;24008;42.664;23.372;2022-12-20T01:21:00;12.33;;;6.73;;
6135;SDS011;24008;42.664;23.372;2022-12-20T01:23:28;16.93;;;8.90;;
6135;SDS011;24008;42.664;23.372;2022-12-20T01:25:56;15.03;;;7.47;;
6135;SDS011;24008;42.664;23.372;2022-12-20T01:28:24;16.60;;;8.13;;
6135;SDS011;24008;42.664;23.372;2022-12-20T01:30:51;17.90;;;8.10;;
6135;SDS011;24008;42.664;23.372;2022-12-20T01:33:19;15.87;;;8.63;;
6135;SDS011;24008;42.664;23.372;2022-12-20T01:35:56;14.90;;;7.23;;
6135;SDS011;24008;42.664;23.372;2022-12-20T01:38:24;11.33;;;6.67;;
6135;SDS011;24008;42.664;23.372;2022-12-20T01:40:51;11.80;;;6.57;;
6135;SDS011;24008;42.664;23.372;2022-12-20T01:43:19;15.57;;;6.87;;
6135;SDS011;24008;42.664;23.372;2022-12-20T01:45:46;18.47;;;8.87;;
6135;SDS011;24008;42.664;23.372;2022-12-20T01:48:13;13.50;;;6.60;;
6135;SDS011;24008;42.664;23.372;2022-12-20T01:50:44;19.20;;;9.47;;
6135;SDS011;24008;42.664;23.372;2022-12-20T01:53:12;12.30;;;6.27;;
6135;SDS011;24008;42.664;23.372;2022-12-20T01:55:40;23.20;;;10.10;;
6135;SDS011;24008;42.664;23.372;2022-12-20T01:58:07;12.57;;;6.20;;
6135;SDS011;24008;42.664;23.372;2022-12-20T02:00:37;15.03;;;6.17;;
6135;SDS011;24008;42.664;23.372;2022-12-20T02:03:04;14.20;;;7.67;;
6135;SDS011;24008;42.664;23.372;2022-12-20T02:05:34;7.70;;;4.40;;
6135;SDS011;24008;42.664;23.372;2022-12-20T02:08:04;10.30;;;5.70;;
6135;SDS011;24008;42.664;23.372;2022-12-20T02:10:34;15.03;;;8.00;;
6135;SDS011;24008;42.664;23.372;2022-12-20T02:13:16;11.70;;;5.53;;
6135;SDS011;24008;42.664;23.372;2022-12-20T02:15:53;14.13;;;7.13;;
6135;SDS011;24008;42.664;23.372;2022-12-20T02:18:22;13.00;;;7.93;;
6135;SDS011;24008;42.664;23.372;2022-12-20T02:26:56;13.10;;;7.33;;
6135;SDS011;24008;42.664;23.372;2022-12-20T02:32:39;16.80;;;9.20;;
6135;SDS011;24008;42.664;23.372;2022-12-20T02:35:14;11.40;;;6.33;;
6135;SDS011;24008;42.664;23.372;2022-12-20T02:37:47;16.23;;;8.40;;
6135;SDS011;24008;42.664;23.372;2022-12-20T02:40:16;14.63;;;8.57;;
6135;SDS011;24008;42.664;23.372;2022-12-20T02:42:45;13.57;;;7.93;;
6135;SDS011;24008;42.664;23.372;2022-12-20T02:45:14;17.43;;;9.60;;
6135;SDS011;24008;42.664;23.372;2022-12-20T02:47:44;12.27;;;7.43;;
6135;SDS011;24008;42.664;23.372;2022-12-20T02:50:16;16.33;;;7.93;;
6135;SDS011;24008;42.664;23.372;2022-12-20T02:52:46;14.80;;;8.27;;
6135;SDS011;24008;42.664;23.372;2022-12-20T02:55:14;17.73;;;8.50;;
6135;SDS011;24008;42.664;23.372;2022-12-20T02:57:42;12.23;;;6.83;;
6135;SDS011;24008;42.664;23.372;2022-12-20T03:00:17;16.67;;;9.53;;
6135;SDS011;24008;42.664;23.372;2022-12-20T03:02:45;9.60;;;5.80;;
6135;SDS011;24008;42.664;23.372;2022-12-20T03:05:31;17.70;;;9.03;;
6135;SDS011;24008;42.664;23.372;2022-12-20T03:08:01;21.33;;;10.33;;
6135;SDS011;24008;42.664;23.372;2022-12-20T03:10:28;12.63;;;8.00;;
6135;SDS011;24008;42.664;23.372;2022-12-20T03:12:55;13.73;;;7.47;;
6135;SDS011;24008;42.664;23.372;2022-12-20T03:15:23;17.23;;;9.70;;
6135;SDS011;24008;42.664;23.372;2022-12-20T03:17:50;18.23;;;9.37;;
6135;SDS011;24008;42.664;23.372;2022-12-20T03:20:17;17.27;;;8.77;;
6135;SDS011;24008;42.664;23.372;2022-12-20T03:22:44;20.97;;;10.30;;
6135;SDS011;24008;42.664;23.372;2022-12-20T03:25:10;16.67;;;9.70;;
6135;SDS011;24008;42.664;23.372;2022-12-20T03:27:37;18.70;;;10.23;;
6135;SDS011;24008;42.664;23.372;2022-12-20T03:30:05;22.13;;;11.37;;
6135;SDS011;24008;42.664;23.372;2022-12-20T03:32:34;17.10;;;9.97;;
6135;SDS011;24008;42.664;23.372;2022-12-20T03:35:01;19.90;;;11.17;;
6135;SDS011;24008;42.664;23.372;2022-12-20T03:37:27;14.70;;;8.43;;
6135;SDS011;24008;42.664;23.372;2022-12-20T03:39:54;17.67;;;9.57;;
6135;SDS011;24008;42.664;23.372;2022-12-20T03:42:21;22.47;;;11.97;;
6135;SDS011;24008;42.664;23.372;2022-12-20T03:44:48;20.80;;;11.20;;
6135;SDS011;24008;42.664;23.372;2022-12-20T03:47:15;24.53;;;11.50;;
6135;SDS011;24008;42.664;23.372;2022-12-20T03:49:43;25.00;;;11.83;;
6135;SDS011;24008;42.664;23.372;2022-12-20T03:52:10;22.87;;;11.97;;
6135;SDS011;24008;42.664;23.372;2022-12-20T03:54:38;26.80;;;13.53;;
6135;SDS011;24008;42.664;23.372;2022-12-20T03:57:05;19.43;;;11.63;;
6135;SDS011;24008;42.664;23.372;2022-12-20T03:59:32;18.80;;;9.70;;
6135;SDS011;24008;42.664;23.372;2022-12-20T04:01:59;21.93;;;11.47;;
6135;SDS011;24008;42.664;23.372;2022-12-20T04:04:26;20.73;;;10.87;;
6135;SDS011;24008;42.664;23.372;2022-12-20T04:06:54;22.67;;;12.20;;
6135;SDS011;24008;42.664;23.372;2022-12-20T04:09:21;24.67;;;13.43;;
6135;SDS011;24008;42.664;23.372;2022-12-20T04:11:48;20.90;;;11.50;;
6135;SDS011;24008;42.664;23.372;2022-12-20T04:14:15;18.83;;;10.83;;
6135;SDS011;24008;42.664;23.372;2022-12-20T04:16:42;25.63;;;12.80;;
6135;SDS011;24008;42.664;23.372;2022-12-20T04:19:09;24.23;;;13.50;;
6135;SDS011;24008;42.664;23.372;2022-12-20T04:21:36;22.53;;;12.27;;
6135;SDS011;24008;42.664;23.372;2022-12-20T04:24:04;25.60;;;13.97;;
6135;SDS011;24008;42.664;23.372;2022-12-20T04:26:31;25.77;;;12.17;;
6135;SDS011;24008;42.664;23.372;2022-12-20T04:28:58;24.67;;;13.87;;
6135;SDS011;24008;42.664;23.372;2022-12-20T04:31:25;28.83;;;14.30;;
6135;SDS011;24008;42.664;23.372;2022-12-20T04:33:52;24.47;;;12.27;;
6135;SDS011;24008;42.664;23.372;2022-12-20T04:36:19;21.37;;;12.40;;
6135;SDS011;24008;42.664;23.372;2022-12-20T04:38:47;25.33;;;14.20;;
6135;SDS011;24008;42.664;23.372;2022-12-20T04:41:15;27.47;;;14.93;;
6135;SDS011;24008;42.664;23.372;2022-12-20T04:43:50;25.23;;;13.80;;
6135;SDS011;24008;42.664;23.372;2022-12-20T04:46:18;27.37;;;13.33;;
6135;SDS011;24008;42.664;23.372;2022-12-20T04:48:45;26.40;;;14.67;;
6135;SDS011;24008;42.664;23.372;2022-12-20T04:51:12;26.00;;;14.10;;
6135;SDS011;24008;42.664;23.372;2022-12-20T04:53:39;29.23;;;15.47;;
6135;SDS011;24008;42.664;23.372;2022-12-20T04:56:12;31.20;;;13.73;;
6135;SDS011;24008;42.664;23.372;2022-12-20T04:58:41;29.17;;;15.60;;
6135;SDS011;24008;42.664;23.372;2022-12-20T05:01:08;31.00;;;14.27;;
6135;SDS011;24008;42.664;23.372;2022-12-20T05:03:35;31.37;;;14.80;;
6135;SDS011;24008;42.664;23.372;2022-12-20T05:06:02;21.37;;;11.73;;
6135;SDS011;24008;42.664;23.372;2022-12-20T05:08:30;27.63;;;15.00;;
6135;SDS011;24008;42.664;23.372;2022-12-20T05:10:58;28.40;;;15.30;;
6135;SDS011;24008;42.664;23.372;2022-12-20T05:13:24;15.10;;;9.40;;
6135;SDS011;24008;42.664;23.372;2022-12-20T05:15:53;28.77;;;14.73;;
6135;SDS011;24008;42.664;23.372;2022-12-20T05:18:22;25.30;;;13.27;;
6135;SDS011;24008;42.664;23.372;2022-12-20T05:20:49;24.23;;;13.93;;
6135;SDS011;24008;42.664;23.372;2022-12-20T05:23:36;19.07;;;9.53;;
6135;SDS011;24008;42.664;23.372;2022-12-20T05:26:21;21.80;;;11.30;;
6135;SDS011;24008;42.664;23.372;2022-12-20T05:28:50;26.37;;;14.03;;
6135;SDS011;24008;42.664;23.372;2022-12-20T05:31:18;29.73;;;15.20;;
6135;SDS011;24008;42.664;23.372;2022-12-20T05:33:45;27.27;;;14.90;;
6135;SDS011;24008;42.664;23.372;2022-12-20T05:36:12;24.83;;;15.00;;
6135;SDS011;24008;42.664;23.372;2022-12-20T05:38:39;27.33;;;13.50;;
6135;SDS011;24008;42.664;23.372;2022-12-20T05:41:05;24.50;;;12.17;;
6135;SDS011;24008;42.664;23.372;2022-12-20T05:43:32;26.60;;;15.20;;
6135;SDS011;24008;42.664;23.372;2022-12-20T05:46:02;27.08;;;14.50;;
6135;SDS011;24008;42.664;23.372;2022-12-20T05:48:33;21.73;;;11.40;;
6135;SDS011;24008;42.664;23.372;2022-12-20T05:50:59;20.47;;;11.50;;
6135;SDS011;24008;42.664;23.372;2022-12-20T05:53:26;25.83;;;14.27;;
6135;SDS011;24008;42.664;23.372;2022-12-20T05:55:53;29.87;;;15.63;;
6135;SDS011;24008;42.664;23.372;2022-12-20T05:58:20;25.47;;;13.13;;
6135;SDS011;24008;42.664;23.372;2022-12-20T06:00:47;25.83;;;14.40;;
6135;SDS011;24008;42.664;23.372;2022-12-20T06:03:14;27.90;;;12.53;;
6135;SDS011;24008;42.664;23.372;2022-12-20T06:05:42;21.97;;;12.33;;
6135;SDS011;24008;42.664;23.372;2022-12-20T06:08:10;26.17;;;13.60;;
6135;SDS011;24008;42.664;23.372;2022-12-20T06:10:38;25.20;;;13.30;;
6135;SDS011;24008;42.664;23.372;2022-12-20T06:13:06;25.43;;;13.93;;
6135;SDS011;24008;42.664;23.372;2022-12-20T06:15:33;28.87;;;15.03;;
6135;SDS011;24008;42.664;23.372;2022-12-20T06:18:00;30.13;;;14.67;;
6135;SDS011;24008;42.664;23.372;2022-12-20T06:20:27;29.13;;;16.07;;
6135;SDS011;24008;42.664;23.372;2022-12-20T06:22:56;27.73;;;12.93;;
6135;SDS011;24008;42.664;23.372;2022-12-20T06:25:24;26.63;;;14.57;;
6135;SDS011;24008;42.664;23.372;2022-12-20T06:27:51;25.33;;;14.67;;
6135;SDS011;24008;42.664;23.372;2022-12-20T06:30:18;26.57;;;13.20;;
6135;SDS011;24008;42.664;23.372;2022-12-20T06:32:45;26.20;;;14.70;;
6135;SDS011;24008;42.664;23.372;2022-12-20T06:35:12;24.03;;;13.73;;
6135;SDS011;24008;42.664;23.372;2022-12-20T06:37:39;25.40;;;13.47;;
6135;SDS011;24008;42.664;23.372;2022-12-20T06:40:09;26.90;;;13.40;;
6135;SDS011;24008;42.664;23.372;2022-12-20T06:42:37;26.93;;;13.47;;
6135;SDS011;24008;42.664;23.372;2022-12-20T06:45:05;24.13;;;13.10;;
6135;SDS011;24008;42.664;23.372;2022-12-20T06:47:32;25.47;;;13.00;;
6135;SDS011;24008;42.664;23.372;2022-12-20T06:50:00;21.33;;;12.67;;
6135;SDS011;24008;42.664;23.372;2022-12-20T06:52:27;24.30;;;13.50;;
6135;SDS011;24008;42.664;23.372;2022-12-20T06:54:54;22.20;;;12.40;;
6135;SDS011;24008;42.664;23.372;2022-12-20T06:57:22;21.90;;;12.70;;
6135;SDS011;24008;42.664;23.372;2022-12-20T06:59:49;21.27;;;12.43;;
6135;SDS011;24008;42.664;23.372;2022-12-20T07:02:16;20.93;;;11.87;;
6135;SDS011;24008;42.664;23.372;2022-12-20T07:04:43;21.77;;;12.77;;
6135;SDS011;24008;42.664;23.372;2022-12-20T07:07:10;24.70;;;12.23;;
6135;SDS011;24008;42.664;23.372;2022-12-20T07:09:38;22.33;;;12.37;;
6135;SDS011;24008;42.664;23.372;2022-12-20T07:12:06;22.43;;;12.10;;
6135;SDS011;24008;42.664;23.372;2022-12-20T07:14:34;24.47;;;12.70;;
6135;SDS011;24008;42.664;23.372;2022-12-20T07:17:01;20.93;;;12.40;;
6135;SDS011;24008;42.664;23.372;2022-12-20T07:19:28;21.87;;;12.33;;
6135;SDS011;24008;42.664;23.372;2022-12-20T07:21:55;21.73;;;12.20;;
6135;SDS011;24008;42.664;23.372;2022-12-20T07:24:22;19.30;;;10.33;;
6135;SDS011;24008;42.664;23.372;2022-12-20T07:26:49;19.20;;;10.87;;
6135;SDS011;24008;42.664;23.372;2022-12-20T07:29:15;23.03;;;11.27;;
6135;SDS011;24008;42.664;23.372;2022-12-20T07:31:44;21.57;;;11.33;;
6135;SDS011;24008;42.664;23.372;2022-12-20T07:34:10;20.57;;;12.33;;
6135;SDS011;24008;42.664;23.372;2022-12-20T07:36:37;23.33;;;12.17;;
6135;SDS011;24008;42.664;23.372;2022-12-20T07:39:04;20.03;;;11.47;;
6135;SDS011;24008;42.664;23.372;2022-12-20T07:41:31;15.90;;;9.83;;
6135;SDS011;24008;42.664;23.372;2022-12-20T07:43:57;17.17;;;10.03;;
6135;SDS011;24008;42.664;23.372;2022-12-20T07:46:24;20.00;;;11.43;;
6135;SDS011;24008;42.664;23.372;2022-12-20T07:48:53;19.77;;;11.57;;
6135;SDS011;24008;42.664;23.372;2022-12-20T07:51:20;19.80;;;11.83;;
6135;SDS011;24008;42.664;23.372;2022-12-20T07:53:51;21.77;;;11.67;;
6135;SDS011;24008;42.664;23.372;2022-12-20T07:56:23;21.10;;;11.70;;
6135;SDS011;24008;42.664;23.372;2022-12-20T07:58:52;20.57;;;12.03;;
6135;SDS011;24008;42.664;23.372;2022-12-20T08:01:24;20.03;;;11.33;;
6135;SDS011;24008;42.664;23.372;2022-12-20T08:03:54;19.80;;;11.83;;
6135;SDS011;24008;42.664;23.372;2022-12-20T08:06:27;15.43;;;10.67;;
6135;SDS011;24008;42.664;23.372;2022-12-20T08:08:56;17.90;;;10.57;;
6135;SDS011;24008;42.664;23.372;2022-12-20T08:11:26;16.63;;;10.50;;
6135;SDS011;24008;42.664;23.372;2022-12-20T08:13:55;15.80;;;9.90;;
6135;SDS011;24008;42.664;23.372;2022-12-20T08:16:23;20.03;;;9.93;;
6135;SDS011;24008;42.664;23.372;2022-12-20T08:18:50;17.60;;;9.33;;
6135;SDS011;24008;42.664;23.372;2022-12-20T08:21:18;16.03;;;10.27;;
6135;SDS011;24008;42.664;23.372;2022-12-20T08:23:45;19.47;;;11.33;;
6135;SDS011;24008;42.664;23.372;2022-12-20T08:26:12;17.43;;;11.17;;
6135;SDS011;24008;42.664;23.372;2022-12-20T08:28:39;16.37;;;9.93;;
6135;SDS011;24008;42.664;23.372;2022-12-20T08:31:07;18.40;;;10.17;;
6135;SDS011;24008;42.664;23.372;2022-12-20T08:33:35;16.00;;;9.70;;
6135;SDS011;24008;42.664;23.372;2022-12-20T08:36:03;17.43;;;9.27;;
6135;SDS011;24008;42.664;23.372;2022-12-20T08:38:33;17.53;;;10.30;;
6135;SDS011;24008;42.664;23.372;2022-12-20T08:41:01;20.17;;;11.40;;
6135;SDS011;24008;42.664;23.372;2022-12-20T08:43:29;21.53;;;10.83;;
6135;SDS011;24008;42.664;23.372;2022-12-20T08:45:56;16.23;;;10.40;;
6135;SDS011;24008;42.664;23.372;2022-12-20T08:48:23;18.10;;;10.90;;
6135;SDS011;24008;42.664;23.372;2022-12-20T08:50:54;18.80;;;10.77;;
6135;SDS011;24008;42.664;23.372;2022-12-20T08:53:43;14.83;;;9.63;;
6135;SDS011;24008;42.664;23.372;2022-12-20T08:56:10;13.90;;;9.07;;
6135;SDS011;24008;42.664;23.372;2022-12-20T08:58:39;14.90;;;9.87;;
6135;SDS011;24008;42.664;23.372;2022-12-20T09:01:07;17.03;;;9.93;;
6135;SDS011;24008;42.664;23.372;2022-12-20T09:03:36;14.97;;;9.10;;
6135;SDS011;24008;42.664;23.372;2022-12-20T09:06:04;15.57;;;9.90;;
6135;SDS011;24008;42.664;23.372;2022-12-20T09:08:32;15.53;;;9.87;;
6135;SDS011;24008;42.664;23.372;2022-12-20T09:11:03;17.83;;;10.57;;
6135;SDS011;24008;42.664;23.372;2022-12-20T09:13:30;15.43;;;9.53;;
6135;SDS011;24008;42.664;23.372;2022-12-20T09:15:58;12.97;;;8.20;;
6135;SDS011;24008;42.664;23.372;2022-12-20T09:18:26;12.97;;;8.83;;
6135;SDS011;24008;42.664;23.372;2022-12-20T09:20:53;16.07;;;8.93;;
6135;SDS011;24008;42.664;23.372;2022-12-20T09:23:20;16.00;;;10.13;;
6135;SDS011;24008;42.664;23.372;2022-12-20T09:25:47;17.00;;;9.93;;
6135;SDS011;24008;42.664;23.372;2022-12-20T09:28:15;14.87;;;9.87;;
6135;SDS011;24008;42.664;23.372;2022-12-20T09:30:42;16.30;;;9.73;;
6135;SDS011;24008;42.664;23.372;2022-12-20T09:33:08;14.87;;;8.90;;
6135;SDS011;24008;42.664;23.372;2022-12-20T09:35:35;18.50;;;9.90;;
6135;SDS011;24008;42.664;23.372;2022-12-20T09:38:02;21.53;;;10.67;;
6135;SDS011;24008;42.664;23.372;2022-12-20T09:40:30;16.63;;;9.87;;
6135;SDS011;24008;42.664;23.372;2022-12-20T09:42:57;16.83;;;10.40;;
6135;SDS011;24008;42.664;23.372;2022-12-20T09:45:27;15.27;;;9.77;;
6135;SDS011;24008;42.664;23.372;2022-12-20T09:47:59;17.63;;;9.37;;
6135;SDS011;24008;42.664;23.372;2022-12-20T09:50:36;18.37;;;11.20;;
6135;SDS011;24008;42.664;23.372;2022-12-20T09:53:17;24.07;;;12.07;;
6135;SDS011;24008;42.664;23.372;2022-12-20T09:55:55;20.57;;;10.87;;
6135;SDS011;24008;42.664;23.372;2022-12-20T09:58:29;18.13;;;11.27;;
6135;SDS011;24008;42.664;23.372;2022-12-20T10:01:15;14.20;;;9.37;;
6135;SDS011;24008;42.664;23.372;2022-12-20T10:03:45;15.97;;;10.47;;
6135;SDS011;24008;42.664;23.372;2022-12-20T10:06:14;19.53;;;11.17;;
6135;SDS011;24008;42.664;23.372;2022-12-20T10:08:49;18.47;;;10.80;;
6135;SDS011;24008;42.664;23.372;2022-12-20T10:14:17;14.13;;;8.80;;
6135;SDS011;24008;42.664;23.372;2022-12-20T10:16:59;14.73;;;9.73;;
6135;SDS011;24008;42.664;23.372;2022-12-20T10:19:31;14.20;;;9.27;;
6135;SDS011;24008;42.664;23.372;2022-12-20T10:22:28;15.73;;;10.00;;
6135;SDS011;24008;42.664;23.372;2022-12-20T10:25:00;13.20;;;8.53;;
6135;SDS011;24008;42.664;23.372;2022-12-20T10:27:39;12.70;;;7.87;;
6135;SDS011;24008;42.664;23.372;2022-12-20T10:30:10;13.77;;;8.63;;
6135;SDS011;24008;42.664;23.372;2022-12-20T10:32:41;14.97;;;8.33;;
6135;SDS011;24008;42.664;23.372;2022-12-20T10:35:21;14.40;;;8.40;;
6135;SDS011;24008;42.664;23.372;2022-12-20T10:37:57;14.60;;;8.70;;
6135;SDS011;24008;42.664;23.372;2022-12-20T10:40:26;14.40;;;8.43;;
6135;SDS011;24008;42.664;23.372;2022-12-20T10:42:55;13.60;;;8.33;;
6135;SDS011;24008;42.664;23.372;2022-12-20T10:45:41;13.13;;;7.40;;
6135;SDS011;24008;42.664;23.372;2022-12-20T10:48:24;13.67;;;8.57;;
6135;SDS011;24008;42.664;23.372;2022-12-20T10:50:55;16.83;;;9.00;;
6135;SDS011;24008;42.664;23.372;2022-12-20T10:53:23;15.63;;;9.20;;
6135;SDS011;24008;42.664;23.372;2022-12-20T10:55:51;14.97;;;9.10;;
6135;SDS011;24008;42.664;23.372;2022-12-20T10:58:21;17.13;;;8.50;;
6135;SDS011;24008;42.664;23.372;2022-12-20T11:01:03;20.43;;;8.77;;
6135;SDS011;24008;42.664;23.372;2022-12-20T11:03:34;11.30;;;7.10;;
6135;SDS011;24008;42.664;23.372;2022-12-20T11:06:16;13.00;;;8.07;;
6135;SDS011;24008;42.664;23.372;2022-12-20T11:08:44;14.80;;;7.50;;
6135;SDS011;24008;42.664;23.372;2022-12-20T11:11:13;14.93;;;8.37;;
6135;SDS011;24008;42.664;23.372;2022-12-20T11:13:43;13.87;;;7.50;;
6135;SDS011;24008;42.664;23.372;2022-12-20T11:16:28;14.13;;;7.80;;
6135;SDS011;24008;42.664;23.372;2022-12-20T11:21:57;15.03;;;8.67;;
6135;SDS011;24008;42.664;23.372;2022-12-20T11:24:32;15.00;;;9.00;;
6135;SDS011;24008;42.664;23.372;2022-12-20T11:27:15;17.20;;;9.17;;
6135;SDS011;24008;42.664;23.372;2022-12-20T11:32:52;13.47;;;7.40;;
6135;SDS011;24008;42.664;23.372;2022-12-20T11:35:31;13.80;;;6.97;;
6135;SDS011;24008;42.664;23.372;2022-12-20T11:38:10;13.20;;;7.53;;
6135;SDS011;24008;42.664;23.372;2022-12-20T11:40:48;11.67;;;6.50;;
6135;SDS011;24008;42.664;23.372;2022-12-20T11:43:30;14.27;;;7.87;;
6135;SDS011;24008;42.664;23.372;2022-12-20T11:46:13;13.63;;;7.50;;
6135;SDS011;24008;42.664;23.372;2022-12-20T11:49:02;13.47;;;7.17;;
6135;SDS011;24008;42.664;23.372;2022-12-20T11:51:59;13.40;;;8.33;;
6135;SDS011;24008;42.664;23.372;2022-12-20T11:54:32;15.07;;;7.53;;
6135;SDS011;24008;42.664;23.372;2022-12-20T11:57:04;12.80;;;7.33;;
6135;SDS011;24008;42.664;23.372;2022-12-20T11:59:39;11.80;;;6.97;;
6135;SDS011;24008;42.664;23.372;2022-12-20T12:02:11;16.00;;;7.17;;
6135;SDS011;24008;42.664;23.372;2022-12-20T12:04:41;13.10;;;7.60;;
6135;SDS011;24008;42.664;23.372;2022-12-20T12:07:14;12.40;;;7.70;;
6135;SDS011;24008;42.664;23.372;2022-12-20T12:09:48;12.40;;;6.50;;
6135;SDS011;24008;42.664;23.372;2022-12-20T12:12:22;13.67;;;6.27;;
6135;SDS011;24008;42.664;23.372;2022-12-20T12:14:54;14.43;;;6.90;;
6135;SDS011;24008;42.664;23.372;2022-12-20T12:17:27;12.90;;;6.07;;
6135;SDS011;24008;42.664;23.372;2022-12-20T12:20:06;11.60;;;5.80;;
6135;SDS011;24008;42.664;23.372;2022-12-20T12:22:48;12.33;;;6.30;;
6135;SDS011;24008;42.664;23.372;2022-12-20T12:25:21;8.57;;;5.50;;
6135;SDS011;24008;42.664;23.372;2022-12-20T12:27:49;10.20;;;5.00;;
6135;SDS011;24008;42.664;23.372;2022-12-20T12:30:16;7.97;;;5.13;;
6135;SDS011;24008;42.664;23.372;2022-12-20T12:32:44;10.73;;;4.50;;
6135;SDS011;24008;42.664;23.372;2022-12-20T12:38:32;8.20;;;4.60;;
6135;SDS011;24008;42.664;23.372;2022-12-20T12:41:27;7.50;;;4.90;;
6135;SDS011;24008;42.664;23.372;2022-12-20T12:47:01;9.57;;;5.70;;
6135;SDS011;24008;42.664;23.372;2022-12-20T12:49:32;10.57;;;6.27;;
6135;SDS011;24008;42.664;23.372;2022-12-20T12:52:00;11.43;;;6.57;;
6135;SDS011;24008;42.664;23.372;2022-12-20T12:54:35;9.27;;;4.97;;
6135;SDS011;24008;42.664;23.372;2022-12-20T12:57:06;9.40;;;4.97;;
6135;SDS011;24008;42.664;23.372;2022-12-20T12:59:40;12.67;;;5.33;;
6135;SDS011;24008;42.664;23.372;2022-12-20T13:02:23;9.27;;;5.00;;
6135;SDS011;24008;42.664;23.372;2022-12-20T13:05:25;10.13;;;5.40;;
6135;SDS011;24008;42.664;23.372;2022-12-20T13:07:56;8.13;;;4.90;;
6135;SDS011;24008;42.664;23.372;2022-12-20T13:13:35;8.30;;;5.13;;
6135;SDS011;24008;42.664;23.372;2022-12-20T13:16:10;8.07;;;5.27;;
6135;SDS011;24008;42.664;23.372;2022-12-20T13:21:37;7.07;;;4.60;;
6135;SDS011;24008;42.664;23.372;2022-12-20T13:27:24;9.13;;;5.20;;
6135;SDS011;24008;42.664;23.372;2022-12-20T13:29:59;11.50;;;5.30;;
6135;SDS011;24008;42.664;23.372;2022-12-20T13:32:55;4.93;;;3.60;;
6135;SDS011;24008;42.664;23.372;2022-12-20T13:35:30;6.60;;;4.33;;
6135;SDS011;24008;42.664;23.372;2022-12-20T13:41:08;12.60;;;5.80;;
6135;SDS011;24008;42.664;23.372;2022-12-20T13:43:43;12.37;;;5.67;;
6135;SDS011;24008;42.664;23.372;2022-12-20T13:46:14;8.33;;;5.70;;
6135;SDS011;24008;42.664;23.372;2022-12-20T13:48:48;12.23;;;6.20;;
6135;SDS011;24008;42.664;23.372;2022-12-20T13:51:19;10.43;;;5.90;;
6135;SDS011;24008;42.664;23.372;2022-12-20T13:53:50;9.80;;;5.80;;
6135;SDS011;24008;42.664;23.372;2022-12-20T13:56:19;7.20;;;4.50;;
6135;SDS011;24008;42.664;23.372;2022-12-20T13:59:02;8.40;;;4.47;;
6135;SDS011;24008;42.664;23.372;2022-12-20T14:01:34;11.40;;;6.20;;
6135;SDS011;24008;42.664;23.372;2022-12-20T14:04:02;11.93;;;6.10;;
6135;SDS011;24008;42.664;23.372;2022-12-20T14:06:31;7.97;;;4.73;;
6135;SDS011;24008;42.664;23.372;2022-12-20T14:08:58;8.90;;;5.07;;
6135;SDS011;24008;42.664;23.372;2022-12-20T14:11:25;7.93;;;5.87;;
6135;SDS011;24008;42.664;23.372;2022-12-20T14:13:53;6.80;;;4.40;;
6135;SDS011;24008;42.664;23.372;2022-12-20T14:16:22;6.53;;;4.50;;
6135;SDS011;24008;42.664;23.372;2022-12-20T14:18:53;7.90;;;4.70;;
6135;SDS011;24008;42.664;23.372;2022-12-20T14:21:26;7.57;;;4.70;;
6135;SDS011;24008;42.664;23.372;2022-12-20T14:23:54;8.43;;;4.30;;
6135;SDS011;24008;42.664;23.372;2022-12-20T14:26:26;8.40;;;5.20;;
6135;SDS011;24008;42.664;23.372;2022-12-20T14:28:55;7.73;;;5.50;;
6135;SDS011;24008;42.664;23.372;2022-12-20T14:31:23;9.63;;;6.03;;
6135;SDS011;24008;42.664;23.372;2022-12-20T14:34:01;11.67;;;5.97;;
6135;SDS011;24008;42.664;23.372;2022-12-20T14:36:29;12.73;;;6.87;;
6135;SDS011;24008;42.664;23.372;2022-12-20T14:38:58;12.37;;;6.43;;
6135;SDS011;24008;42.664;23.372;2022-12-20T14:41:29;10.47;;;6.83;;
6135;SDS011;24008;42.664;23.372;2022-12-20T14:44:00;13.80;;;7.13;;
6135;SDS011;24008;42.664;23.372;2022-12-20T14:46:31;8.57;;;5.63;;
6135;SDS011;24008;42.664;23.372;2022-12-20T14:49:14;10.63;;;6.50;;
6135;SDS011;24008;42.664;23.372;2022-12-20T14:51:46;10.97;;;6.67;;
6135;SDS011;24008;42.664;23.372;2022-12-20T14:54:15;9.97;;;6.50;;
6135;SDS011;24008;42.664;23.372;2022-12-20T14:56:44;12.03;;;6.60;;
6135;SDS011;24008;42.664;23.372;2022-12-20T14:59:13;14.70;;;6.50;;
6135;SDS011;24008;42.664;23.372;2022-12-20T15:01:42;11.87;;;6.77;;
6135;SDS011;24008;42.664;23.372;2022-12-20T15:04:20;11.70;;;6.80;;
6135;SDS011;24008;42.664;23.372;2022-12-20T15:06:49;17.07;;;7.97;;
6135;SDS011;24008;42.664;23.372;2022-12-20T15:09:16;15.33;;;8.87;;
6135;SDS011;24008;42.664;23.372;2022-12-20T15:11:44;15.47;;;8.67;;
6135;SDS011;24008;42.664;23.372;2022-12-20T15:14:18;17.60;;;8.53;;
6135;SDS011;24008;42.664;23.372;2022-12-20T15:16:50;16.03;;;8.90;;
6135;SDS011;24008;42.664;23.372;2022-12-20T15:19:17;16.63;;;9.27;;
6135;SDS011;24008;42.664;23.372;2022-12-20T15:21:45;15.40;;;8.33;;
6135;SDS011;24008;42.664;23.372;2022-12-20T15:24:13;13.30;;;8.60;;
6135;SDS011;24008;42.664;23.372;2022-12-20T15:26:42;13.97;;;7.57;;